Lucy Hannah — WDC7682 — position and weather

sailwx.info

Track history (hours):
 
Tides and Currents Weather Stations Pressure Air Temp Water Temp Dewpoint Dewpoint Depression Visibility Wind Speed Wind Dir Waves Ship Positions

Lucy Hannah

Owner: D&S Marine Service,LLC., Houma, LA. More information available from US FCC via Universal Licensing System and Coast Guard Vessel Documentation Center.

Last reported at 2017-Nov-23 09:59 UTC. Time now 2017-Nov-23 13:08 UTC.
Position N 29°32' W 094°54'.

Length 201 m; draft 3 m.

Type: . MMSI: 367075110.

Date/timePositionNaut miles runAvg speedWind from/ knotsBaromVisibWave heightAir tempDewpointWater temp
2017-Nov-23 09:59N 29°32' W 094°54'3 5.3
2017-Nov-23 09:30N 29°34' W 094°55'3 5.4
2017-Nov-23 09:00N 29°36' W 094°57'2 4.3
2017-Nov-23 08:30N 29°38' W 094°58'2 4.5
2017-Nov-23 08:00N 29°40' W 094°59'3 5.3
2017-Nov-23 07:30N 29°42' W 095°01'2 2.9
2017-Nov-23 06:54N 29°44' W 095°01'0 0.0
2017-Nov-23 06:25N 29°44' W 095°01'4 1.4
2017-Nov-23 03:33N 29°45' W 095°06'0 0.0
2017-Nov-23 03:24N 29°45' W 095°06'  
2017-Nov-18 00:08N 29°42' W 095°01'1 6.4
2017-Nov-17 23:59N 29°42' W 095°00'2 4.6
2017-Nov-17 23:30N 29°40' W 094°59'3 6.2
2017-Nov-17 23:00N 29°37' W 094°57'3 6.4
2017-Nov-17 22:30N 29°34' W 094°56'  
2017-Nov-14 20:31N 30°04' W 093°33'3 5.5
2017-Nov-14 20:01N 30°04' W 093°29'2 4.2
2017-Nov-14 19:31N 30°04' W 093°27'1 1.6
2017-Nov-14 19:01N 30°04' W 093°26'3 5.5
2017-Nov-14 18:30N 30°04' W 093°23'2 4.3
2017-Nov-14 18:01N 30°04' W 093°21'3 5.2
2017-Nov-14 17:31N 30°06' W 093°19'2 3.1
2017-Nov-14 17:01N 30°05' W 093°17'1 1.7
2017-Nov-14 16:31N 30°05' W 093°16'0 0.0
2017-Nov-14 16:01N 30°05' W 093°16'0 0.0
2017-Nov-14 15:31N 30°05' W 093°17'0 0.0
2017-Nov-14 15:00N 30°05' W 093°17'0 0.5
2017-Nov-14 14:31N 30°04' W 093°16'2 3.6
2017-Nov-14 13:59N 30°03' W 093°16'1 2.0
2017-Nov-14 13:31N 30°02' W 093°15'2 4.8
2017-Nov-14 13:00N 29°60' W 093°13'3 5.3
2017-Nov-14 12:31N 29°58' W 093°11'45 4.8
2017-Nov-14 03:05N 29°50' W 092°20'2 5.0
2017-Nov-14 02:47N 29°50' W 092°18'2 5.1
2017-Nov-14 02:23N 29°49' W 092°16'2 5.0
2017-Nov-14 01:59N 29°48' W 092°14'2 3.5
2017-Nov-14 01:30N 29°47' W 092°12'1 1.3
2017-Nov-14 01:00N 29°47' W 092°12'0 0.3
2017-Nov-14 00:30N 29°47' W 092°12'0 0.0
2017-Nov-13 23:53N 29°47' W 092°12'0 0.0
2017-Nov-13 23:23N 29°47' W 092°12'0 0.0
2017-Nov-13 22:53N 29°47' W 092°12'0 0.0
2017-Nov-13 22:30N 29°47' W 092°12'0 0.0
2017-Nov-13 22:00N 29°47' W 092°12'  
Track history (hours):
 
Tides and Currents Weather Stations Pressure Air Temp Water Temp Dewpoint Dewpoint Depression Visibility Wind Speed Wind Dir Waves Ship Positions

Lucy Hannah

Owner: D&S Marine Service,LLC., Houma, LA. More information available from US FCC via Universal Licensing System and Coast Guard Vessel Documentation Center.

Last reported at 2017-Nov-23 09:59 UTC. Time now 2017-Nov-23 13:08 UTC.
Position N 29°32' W 094°54'.

Length 201 m; draft 3 m.

Type: . MMSI: 367075110.

Date/timePositionNaut miles runAvg speedWind from/ knotsBaromVisibWave heightAir tempDewpointWater temp
2017-Nov-23 09:59N 29°32' W 094°54'3 5.3
2017-Nov-23 09:30N 29°34' W 094°55'3 5.4
2017-Nov-23 09:00N 29°36' W 094°57'2 4.3
2017-Nov-23 08:30N 29°38' W 094°58'2 4.5
2017-Nov-23 08:00N 29°40' W 094°59'3 5.3
2017-Nov-23 07:30N 29°42' W 095°01'2 2.9
2017-Nov-23 06:54N 29°44' W 095°01'0 0.0
2017-Nov-23 06:25N 29°44' W 095°01'4 1.4
2017-Nov-23 03:33N 29°45' W 095°06'0 0.0
2017-Nov-23 03:24N 29°45' W 095°06'  
2017-Nov-18 00:08N 29°42' W 095°01'1 6.4
2017-Nov-17 23:59N 29°42' W 095°00'2 4.6
2017-Nov-17 23:30N 29°40' W 094°59'3 6.2
2017-Nov-17 23:00N 29°37' W 094°57'3 6.4
2017-Nov-17 22:30N 29°34' W 094°56'  
2017-Nov-14 20:31N 30°04' W 093°33'3 5.5
2017-Nov-14 20:01N 30°04' W 093°29'2 4.2
2017-Nov-14 19:31N 30°04' W 093°27'1 1.6
2017-Nov-14 19:01N 30°04' W 093°26'3 5.5
2017-Nov-14 18:30N 30°04' W 093°23'2 4.3
2017-Nov-14 18:01N 30°04' W 093°21'3 5.2
2017-Nov-14 17:31N 30°06' W 093°19'2 3.1
2017-Nov-14 17:01N 30°05' W 093°17'1 1.7
2017-Nov-14 16:31N 30°05' W 093°16'0 0.0
2017-Nov-14 16:01N 30°05' W 093°16'0 0.0
2017-Nov-14 15:31N 30°05' W 093°17'0 0.0
2017-Nov-14 15:00N 30°05' W 093°17'0 0.5
2017-Nov-14 14:31N 30°04' W 093°16'2 3.6
2017-Nov-14 13:59N 30°03' W 093°16'1 2.0
2017-Nov-14 13:31N 30°02' W 093°15'2 4.8
2017-Nov-14 13:00N 29°60' W 093°13'3 5.3
2017-Nov-14 12:31N 29°58' W 093°11'45 4.8
2017-Nov-14 03:05N 29°50' W 092°20'2 5.0
2017-Nov-14 02:47N 29°50' W 092°18'2 5.1
2017-Nov-14 02:23N 29°49' W 092°16'2 5.0
2017-Nov-14 01:59N 29°48' W 092°14'2 3.5
2017-Nov-14 01:30N 29°47' W 092°12'1 1.3
2017-Nov-14 01:00N 29°47' W 092°12'0 0.3
2017-Nov-14 00:30N 29°47' W 092°12'0 0.0
2017-Nov-13 23:53N 29°47' W 092°12'0 0.0
2017-Nov-13 23:23N 29°47' W 092°12'0 0.0
2017-Nov-13 22:53N 29°47' W 092°12'0 0.0
2017-Nov-13 22:30N 29°47' W 092°12'0 0.0
2017-Nov-13 22:00N 29°47' W 092°12'  

Dump ship's entire track history